sensor_id;sensor_type;location;lat;lon;timestamp;pressure;altitude;pressure_sealevel;temperature;humidity
62025;BME280;47978;49.118;12.146;2023-03-23T00:02:42;96959.69;;;7.93;84.20
62025;BME280;47978;49.118;12.146;2023-03-23T00:06:42;96964.16;;;7.89;84.41
62025;BME280;47978;49.118;12.146;2023-03-23T00:10:43;96962.56;;;8.02;84.11
62025;BME280;47978;49.118;12.146;2023-03-23T00:14:43;96958.38;;;8.04;83.94
62025;BME280;47978;49.118;12.146;2023-03-23T00:18:46;96960.53;;;8.07;84.00
62025;BME280;47978;49.118;12.146;2023-03-23T00:22:46;96954.41;;;8.10;83.87
62025;BME280;47978;49.118;12.146;2023-03-23T00:26:47;96955.94;;;8.03;84.21
62025;BME280;47978;49.118;12.146;2023-03-23T00:30:48;96950.94;;;8.05;84.35
62025;BME280;47978;49.118;12.146;2023-03-23T00:34:49;96949.22;;;8.09;84.08
62025;BME280;47978;49.118;12.146;2023-03-23T00:38:49;96951.66;;;8.10;83.99
62025;BME280;47978;49.118;12.146;2023-03-23T00:42:50;96956.78;;;8.17;83.93
62025;BME280;47978;49.118;12.146;2023-03-23T00:46:50;96949.25;;;8.23;83.41
62025;BME280;47978;49.118;12.146;2023-03-23T00:50:52;96944.94;;;8.30;82.89
62025;BME280;47978;49.118;12.146;2023-03-23T00:54:52;96938.53;;;8.35;82.53
62025;BME280;47978;49.118;12.146;2023-03-23T00:58:52;96936.81;;;8.25;82.71
62025;BME280;47978;49.118;12.146;2023-03-23T01:02:53;96936.28;;;8.23;83.26
62025;BME280;47978;49.118;12.146;2023-03-23T01:06:54;96939.25;;;8.27;82.72
62025;BME280;47978;49.118;12.146;2023-03-23T01:11:01;96927.69;;;8.11;83.66
62025;BME280;47978;49.118;12.146;2023-03-23T01:15:02;96931.78;;;8.14;83.72
62025;BME280;47978;49.118;12.146;2023-03-23T01:19:02;96930.66;;;8.15;83.95
62025;BME280;47978;49.118;12.146;2023-03-23T01:23:04;96927.09;;;8.14;83.65
62025;BME280;47978;49.118;12.146;2023-03-23T01:27:04;96923.41;;;8.19;83.44
62025;BME280;47978;49.118;12.146;2023-03-23T01:31:05;96917.19;;;8.13;83.54
62025;BME280;47978;49.118;12.146;2023-03-23T01:35:06;96919.66;;;8.15;83.41
62025;BME280;47978;49.118;12.146;2023-03-23T01:39:08;96921.28;;;8.16;83.33
62025;BME280;47978;49.118;12.146;2023-03-23T01:43:09;96917.81;;;8.10;83.79
62025;BME280;47978;49.118;12.146;2023-03-23T01:47:12;96903.75;;;8.25;82.84
62025;BME280;47978;49.118;12.146;2023-03-23T01:51:13;96905.78;;;8.20;82.96
62025;BME280;47978;49.118;12.146;2023-03-23T01:55:15;96905.38;;;8.13;83.26
62025;BME280;47978;49.118;12.146;2023-03-23T01:59:16;96903.50;;;8.08;83.42
62025;BME280;47978;49.118;12.146;2023-03-23T02:03:16;96900.66;;;8.13;83.22
62025;BME280;47978;49.118;12.146;2023-03-23T02:07:17;96899.56;;;8.14;82.87
62025;BME280;47978;49.118;12.146;2023-03-23T02:11:20;96906.38;;;8.03;83.15
62025;BME280;47978;49.118;12.146;2023-03-23T02:15:20;96923.00;;;7.98;83.58
62025;BME280;47978;49.118;12.146;2023-03-23T02:19:30;96917.78;;;7.96;83.58
62025;BME280;47978;49.118;12.146;2023-03-23T02:23:44;96924.94;;;7.97;83.77
62025;BME280;47978;49.118;12.146;2023-03-23T02:28:08;96919.44;;;8.11;83.38
62025;BME280;47978;49.118;12.146;2023-03-23T02:32:21;96913.44;;;8.09;82.87
62025;BME280;47978;49.118;12.146;2023-03-23T02:36:28;96911.50;;;8.23;81.72
62025;BME280;47978;49.118;12.146;2023-03-23T02:40:30;96914.78;;;8.25;81.24
62025;BME280;47978;49.118;12.146;2023-03-23T02:44:33;96917.91;;;8.19;81.56
62025;BME280;47978;49.118;12.146;2023-03-23T02:48:34;96917.31;;;8.36;80.16
62025;BME280;47978;49.118;12.146;2023-03-23T02:52:37;96925.00;;;8.39;80.52
62025;BME280;47978;49.118;12.146;2023-03-23T02:56:40;96919.47;;;8.39;80.87
62025;BME280;47978;49.118;12.146;2023-03-23T03:00:40;96925.91;;;8.34;81.45
62025;BME280;47978;49.118;12.146;2023-03-23T03:04:41;96926.63;;;8.40;80.59
62025;BME280;47978;49.118;12.146;2023-03-23T03:08:45;96920.72;;;8.46;81.38
62025;BME280;47978;49.118;12.146;2023-03-23T03:12:50;96922.66;;;8.46;80.93
62025;BME280;47978;49.118;12.146;2023-03-23T03:16:53;96915.97;;;8.33;82.02
62025;BME280;47978;49.118;12.146;2023-03-23T03:20:58;96922.00;;;8.35;81.39
62025;BME280;47978;49.118;12.146;2023-03-23T03:25:01;96924.91;;;8.44;81.54
62025;BME280;47978;49.118;12.146;2023-03-23T03:29:01;96921.00;;;8.45;81.67
62025;BME280;47978;49.118;12.146;2023-03-23T03:33:02;96916.09;;;8.55;81.63
62025;BME280;47978;49.118;12.146;2023-03-23T03:37:03;96910.69;;;8.64;81.53
62025;BME280;47978;49.118;12.146;2023-03-23T03:41:05;96917.94;;;8.60;80.98
62025;BME280;47978;49.118;12.146;2023-03-23T03:45:06;96917.00;;;8.65;80.77
62025;BME280;47978;49.118;12.146;2023-03-23T03:49:07;96917.22;;;8.68;81.05
62025;BME280;47978;49.118;12.146;2023-03-23T03:53:08;96905.78;;;8.61;81.85
62025;BME280;47978;49.118;12.146;2023-03-23T03:57:10;96906.59;;;8.62;81.64
62025;BME280;47978;49.118;12.146;2023-03-23T04:01:10;96905.78;;;8.61;81.98
62025;BME280;47978;49.118;12.146;2023-03-23T04:05:10;96891.91;;;8.80;80.57
62025;BME280;47978;49.118;12.146;2023-03-23T04:09:11;96892.91;;;8.70;81.12
62025;BME280;47978;49.118;12.146;2023-03-23T04:13:12;96889.06;;;8.71;80.08
62025;BME280;47978;49.118;12.146;2023-03-23T04:17:13;96889.09;;;8.94;76.67
62025;BME280;47978;49.118;12.146;2023-03-23T04:21:13;96899.66;;;9.14;75.50
62025;BME280;47978;49.118;12.146;2023-03-23T04:25:14;96909.38;;;9.12;76.40
62025;BME280;47978;49.118;12.146;2023-03-23T04:29:16;96902.44;;;9.14;77.46
62025;BME280;47978;49.118;12.146;2023-03-23T04:33:17;96889.06;;;9.30;75.18
62025;BME280;47978;49.118;12.146;2023-03-23T04:37:17;96893.59;;;9.26;75.94
62025;BME280;47978;49.118;12.146;2023-03-23T04:41:17;96885.75;;;9.19;77.62
62025;BME280;47978;49.118;12.146;2023-03-23T04:45:20;96880.97;;;9.11;79.52
62025;BME280;47978;49.118;12.146;2023-03-23T04:49:21;96890.88;;;9.12;80.14
62025;BME280;47978;49.118;12.146;2023-03-23T04:53:21;96900.28;;;9.11;79.81
62025;BME280;47978;49.118;12.146;2023-03-23T04:57:21;96901.47;;;9.19;79.57
62025;BME280;47978;49.118;12.146;2023-03-23T05:01:23;96902.44;;;9.14;79.42
62025;BME280;47978;49.118;12.146;2023-03-23T05:05:23;96884.06;;;9.32;75.90
62025;BME280;47978;49.118;12.146;2023-03-23T05:09:24;96875.47;;;9.56;72.67
62025;BME280;47978;49.118;12.146;2023-03-23T05:13:24;96868.34;;;9.86;70.86
62025;BME280;47978;49.118;12.146;2023-03-23T05:17:26;96891.91;;;9.93;70.13
62025;BME280;47978;49.118;12.146;2023-03-23T05:21:27;96889.66;;;9.95;70.19
62025;BME280;47978;49.118;12.146;2023-03-23T05:25:27;96885.31;;;10.02;69.05
62025;BME280;47978;49.118;12.146;2023-03-23T05:29:27;96905.00;;;10.09;68.96
62025;BME280;47978;49.118;12.146;2023-03-23T05:33:29;96901.97;;;10.20;68.82
62025;BME280;47978;49.118;12.146;2023-03-23T05:37:29;96908.00;;;10.22;68.62
62025;BME280;47978;49.118;12.146;2023-03-23T05:41:30;96901.84;;;10.25;68.40
62025;BME280;47978;49.118;12.146;2023-03-23T05:45:30;96900.41;;;10.27;67.25
62025;BME280;47978;49.118;12.146;2023-03-23T05:49:32;96902.47;;;10.22;68.12
62025;BME280;47978;49.118;12.146;2023-03-23T05:53:32;96897.19;;;10.34;67.46
62025;BME280;47978;49.118;12.146;2023-03-23T05:57:32;96894.06;;;10.27;67.62
62025;BME280;47978;49.118;12.146;2023-03-23T06:01:33;96893.69;;;10.20;68.27
62025;BME280;47978;49.118;12.146;2023-03-23T06:05:34;96906.78;;;10.37;68.40
62025;BME280;47978;49.118;12.146;2023-03-23T06:09:35;96903.72;;;10.47;68.07
62025;BME280;47978;49.118;12.146;2023-03-23T06:13:35;96901.47;;;10.49;67.61
62025;BME280;47978;49.118;12.146;2023-03-23T06:17:35;96896.47;;;10.60;67.23
62025;BME280;47978;49.118;12.146;2023-03-23T06:21:37;96887.69;;;10.66;66.79
62025;BME280;47978;49.118;12.146;2023-03-23T06:25:39;96879.41;;;10.75;66.59
62025;BME280;47978;49.118;12.146;2023-03-23T06:29:39;96882.84;;;10.80;65.91
62025;BME280;47978;49.118;12.146;2023-03-23T06:33:39;96880.59;;;11.09;65.39
62025;BME280;47978;49.118;12.146;2023-03-23T06:37:41;96886.28;;;11.30;64.35
62025;BME280;47978;49.118;12.146;2023-03-23T06:41:41;96879.13;;;11.37;64.39
62025;BME280;47978;49.118;12.146;2023-03-23T06:45:42;96871.16;;;11.53;63.49
62025;BME280;47978;49.118;12.146;2023-03-23T06:49:42;96877.97;;;11.73;62.89
62025;BME280;47978;49.118;12.146;2023-03-23T06:53:44;96883.63;;;11.94;62.02
62025;BME280;47978;49.118;12.146;2023-03-23T06:57:44;96886.75;;;11.92;61.99
62025;BME280;47978;49.118;12.146;2023-03-23T07:01:44;96884.25;;;12.08;61.08
62025;BME280;47978;49.118;12.146;2023-03-23T07:05:45;96889.69;;;11.87;61.78
62025;BME280;47978;49.118;12.146;2023-03-23T07:09:47;96893.41;;;12.00;62.21
62025;BME280;47978;49.118;12.146;2023-03-23T07:13:47;96880.69;;;11.99;62.29
62025;BME280;47978;49.118;12.146;2023-03-23T07:17:48;96889.66;;;12.05;62.56
62025;BME280;47978;49.118;12.146;2023-03-23T07:21:48;96882.91;;;12.14;62.29
62025;BME280;47978;49.118;12.146;2023-03-23T07:25:50;96887.16;;;12.12;62.81
62025;BME280;47978;49.118;12.146;2023-03-23T07:29:50;96879.13;;;12.28;62.33
62025;BME280;47978;49.118;12.146;2023-03-23T07:33:50;96886.59;;;12.36;61.87
62025;BME280;47978;49.118;12.146;2023-03-23T07:37:51;96890.00;;;12.42;62.06
62025;BME280;47978;49.118;12.146;2023-03-23T07:41:52;96889.78;;;12.55;61.68
62025;BME280;47978;49.118;12.146;2023-03-23T07:45:53;96892.59;;;12.76;61.17
62025;BME280;47978;49.118;12.146;2023-03-23T07:49:53;96901.50;;;12.91;60.56
62025;BME280;47978;49.118;12.146;2023-03-23T07:53:53;96897.72;;;13.16;59.92
62025;BME280;47978;49.118;12.146;2023-03-23T07:57:55;96903.22;;;13.25;59.60
62025;BME280;47978;49.118;12.146;2023-03-23T08:01:55;96899.91;;;13.32;59.62
62025;BME280;47978;49.118;12.146;2023-03-23T08:05:57;96917.28;;;13.20;59.66
62025;BME280;47978;49.118;12.146;2023-03-23T08:09:57;96913.00;;;13.31;59.52
62025;BME280;47978;49.118;12.146;2023-03-23T08:13:59;96913.59;;;13.37;59.76
62025;BME280;47978;49.118;12.146;2023-03-23T08:17:59;96920.81;;;13.38;60.24
62025;BME280;47978;49.118;12.146;2023-03-23T08:21:59;96914.56;;;13.41;59.79
62025;BME280;47978;49.118;12.146;2023-03-23T08:26:00;96926.06;;;13.31;60.03
62025;BME280;47978;49.118;12.146;2023-03-23T08:30:01;96930.13;;;13.33;60.17
62025;BME280;47978;49.118;12.146;2023-03-23T08:34:02;96940.91;;;13.56;60.04
62025;BME280;47978;49.118;12.146;2023-03-23T08:38:02;96921.94;;;13.58;59.49
62025;BME280;47978;49.118;12.146;2023-03-23T08:42:03;96928.56;;;13.86;59.13
62025;BME280;47978;49.118;12.146;2023-03-23T08:46:05;96927.81;;;13.77;59.79
62025;BME280;47978;49.118;12.146;2023-03-23T08:50:06;96918.63;;;13.98;58.68
62025;BME280;47978;49.118;12.146;2023-03-23T08:54:07;96928.09;;;14.17;57.81
62025;BME280;47978;49.118;12.146;2023-03-23T08:58:07;96930.38;;;14.15;57.47
62025;BME280;47978;49.118;12.146;2023-03-23T09:02:09;96932.88;;;14.29;57.79
62025;BME280;47978;49.118;12.146;2023-03-23T09:06:10;96940.66;;;14.48;57.59
62025;BME280;47978;49.118;12.146;2023-03-23T09:10:10;96953.56;;;14.53;57.15
62025;BME280;47978;49.118;12.146;2023-03-23T09:14:11;96949.66;;;14.66;56.57
62025;BME280;47978;49.118;12.146;2023-03-23T09:18:13;96943.97;;;14.87;57.07
62025;BME280;47978;49.118;12.146;2023-03-23T09:22:13;96943.16;;;14.99;56.46
62025;BME280;47978;49.118;12.146;2023-03-23T09:26:13;96945.38;;;15.05;56.90
62025;BME280;47978;49.118;12.146;2023-03-23T09:30:14;96948.81;;;15.02;56.30
62025;BME280;47978;49.118;12.146;2023-03-23T09:34:16;96954.78;;;14.89;57.41
62025;BME280;47978;49.118;12.146;2023-03-23T09:38:17;96944.78;;;14.88;57.29
62025;BME280;47978;49.118;12.146;2023-03-23T09:42:24;96945.13;;;14.98;57.31
62025;BME280;47978;49.118;12.146;2023-03-23T09:46:35;96947.91;;;14.98;57.61
62025;BME280;47978;49.118;12.146;2023-03-23T09:50:42;96938.28;;;14.96;58.04
62025;BME280;47978;49.118;12.146;2023-03-23T09:54:45;96941.53;;;14.98;57.31
62025;BME280;47978;49.118;12.146;2023-03-23T09:58:49;96946.41;;;15.01;57.55
62025;BME280;47978;49.118;12.146;2023-03-23T10:02:52;96954.88;;;15.29;57.63
62025;BME280;47978;49.118;12.146;2023-03-23T10:06:57;96964.13;;;15.45;56.76
62025;BME280;47978;49.118;12.146;2023-03-23T10:10:59;96962.03;;;15.30;56.92
62025;BME280;47978;49.118;12.146;2023-03-23T10:15:04;96971.09;;;15.39;56.76
62025;BME280;47978;49.118;12.146;2023-03-23T10:19:10;96959.00;;;15.47;57.55
62025;BME280;47978;49.118;12.146;2023-03-23T10:23:14;96957.91;;;15.64;57.86
62025;BME280;47978;49.118;12.146;2023-03-23T10:27:18;96955.09;;;15.89;55.98
62025;BME280;47978;49.118;12.146;2023-03-23T10:31:21;96946.88;;;16.08;55.02
62025;BME280;47978;49.118;12.146;2023-03-23T10:35:24;96940.81;;;16.50;54.78
62025;BME280;47978;49.118;12.146;2023-03-23T10:39:27;96946.78;;;16.64;54.92
62025;BME280;47978;49.118;12.146;2023-03-23T10:43:29;96944.53;;;16.70;54.02
62025;BME280;47978;49.118;12.146;2023-03-23T10:47:30;96947.28;;;16.82;52.93
62025;BME280;47978;49.118;12.146;2023-03-23T10:51:32;96947.72;;;17.00;53.08
62025;BME280;47978;49.118;12.146;2023-03-23T10:55:40;96944.84;;;16.97;53.00
62025;BME280;47978;49.118;12.146;2023-03-23T10:59:41;96955.91;;;16.93;54.72
62025;BME280;47978;49.118;12.146;2023-03-23T11:03:42;96956.09;;;17.16;52.25
62025;BME280;47978;49.118;12.146;2023-03-23T11:07:47;96941.38;;;17.54;51.99
62025;BME280;47978;49.118;12.146;2023-03-23T11:11:50;96935.63;;;17.47;49.58
62025;BME280;47978;49.118;12.146;2023-03-23T11:15:50;96937.69;;;17.31;51.94
62025;BME280;47978;49.118;12.146;2023-03-23T11:19:51;96935.81;;;17.74;51.56
62025;BME280;47978;49.118;12.146;2023-03-23T11:23:52;96929.44;;;17.73;50.92
62025;BME280;47978;49.118;12.146;2023-03-23T11:27:54;96927.59;;;17.81;50.89
62025;BME280;47978;49.118;12.146;2023-03-23T11:32:01;96929.53;;;17.96;49.92
62025;BME280;47978;49.118;12.146;2023-03-23T11:36:02;96936.97;;;18.08;50.31
62025;BME280;47978;49.118;12.146;2023-03-23T11:40:14;96942.41;;;18.20;50.10
62025;BME280;47978;49.118;12.146;2023-03-23T11:44:17;96938.56;;;18.29;48.61
62025;BME280;47978;49.118;12.146;2023-03-23T11:48:20;96936.72;;;18.36;49.16
62025;BME280;47978;49.118;12.146;2023-03-23T11:52:24;96927.38;;;18.52;47.25
62025;BME280;47978;49.118;12.146;2023-03-23T11:56:26;96934.22;;;18.97;46.85
62025;BME280;47978;49.118;12.146;2023-03-23T12:00:29;96938.31;;;19.03;46.33
62025;BME280;47978;49.118;12.146;2023-03-23T12:04:32;96932.16;;;18.94;45.85
62025;BME280;47978;49.118;12.146;2023-03-23T12:08:38;96933.28;;;18.89;45.56
62025;BME280;47978;49.118;12.146;2023-03-23T12:12:44;96935.47;;;18.76;46.12
62025;BME280;47978;49.118;12.146;2023-03-23T12:16:52;96928.38;;;18.82;46.50
62025;BME280;47978;49.118;12.146;2023-03-23T12:20:57;96939.56;;;18.40;46.62
62025;BME280;47978;49.118;12.146;2023-03-23T12:25:04;96933.72;;;18.26;47.18
62025;BME280;47978;49.118;12.146;2023-03-23T12:29:14;96945.75;;;18.30;46.68
62025;BME280;47978;49.118;12.146;2023-03-23T12:33:20;96938.28;;;18.14;47.03
62025;BME280;47978;49.118;12.146;2023-03-23T12:37:25;96935.41;;;18.30;46.48
62025;BME280;47978;49.118;12.146;2023-03-23T12:41:31;96927.28;;;18.45;46.91
62025;BME280;47978;49.118;12.146;2023-03-23T12:45:45;96934.69;;;18.56;47.33
62025;BME280;47978;49.118;12.146;2023-03-23T12:49:50;96934.94;;;18.48;47.52
62025;BME280;47978;49.118;12.146;2023-03-23T12:53:54;96942.44;;;18.43;47.67
62025;BME280;47978;49.118;12.146;2023-03-23T12:57:57;96930.63;;;18.11;48.02
62025;BME280;47978;49.118;12.146;2023-03-23T13:02:03;96928.00;;;17.99;48.51
62025;BME280;47978;49.118;12.146;2023-03-23T13:06:08;96939.41;;;17.90;49.59
62025;BME280;47978;49.118;12.146;2023-03-23T13:10:15;96931.25;;;17.82;49.33
62025;BME280;47978;49.118;12.146;2023-03-23T13:14:21;96934.84;;;17.82;49.54
62025;BME280;47978;49.118;12.146;2023-03-23T13:18:27;96933.06;;;17.58;49.93
62025;BME280;47978;49.118;12.146;2023-03-23T13:22:33;96925.34;;;17.51;50.06
62025;BME280;47978;49.118;12.146;2023-03-23T13:26:37;96937.78;;;17.54;50.33
62025;BME280;47978;49.118;12.146;2023-03-23T13:30:37;96933.06;;;17.58;50.47
62025;BME280;47978;49.118;12.146;2023-03-23T13:34:39;96942.31;;;17.78;50.13
62025;BME280;47978;49.118;12.146;2023-03-23T13:38:45;96928.28;;;17.94;49.80
62025;BME280;47978;49.118;12.146;2023-03-23T13:42:48;96920.75;;;18.17;49.46
62025;BME280;47978;49.118;12.146;2023-03-23T13:47:05;96922.34;;;18.18;48.84
62025;BME280;47978;49.118;12.146;2023-03-23T13:55:29;96921.19;;;18.19;49.15
62025;BME280;47978;49.118;12.146;2023-03-23T13:59:32;96913.44;;;18.32;49.06
62025;BME280;47978;49.118;12.146;2023-03-23T14:03:33;96913.38;;;18.29;48.60
62025;BME280;47978;49.118;12.146;2023-03-23T14:07:50;96919.13;;;18.16;48.73
62025;BME280;47978;49.118;12.146;2023-03-23T14:11:55;96916.19;;;17.90;49.67
62025;BME280;47978;49.118;12.146;2023-03-23T14:15:58;96913.78;;;17.53;49.92
62025;BME280;47978;49.118;12.146;2023-03-23T14:19:59;96917.97;;;17.43;50.83
62025;BME280;47978;49.118;12.146;2023-03-23T14:24:03;96908.81;;;17.27;51.23
62025;BME280;47978;49.118;12.146;2023-03-23T14:28:15;96910.88;;;17.30;51.64
62025;BME280;47978;49.118;12.146;2023-03-23T14:32:17;96904.50;;;17.29;51.15
62025;BME280;47978;49.118;12.146;2023-03-23T14:36:22;96898.56;;;17.31;50.82
62025;BME280;47978;49.118;12.146;2023-03-23T14:40:23;96898.16;;;17.33;51.30
62025;BME280;47978;49.118;12.146;2023-03-23T14:44:28;96895.16;;;17.41;51.14
62025;BME280;47978;49.118;12.146;2023-03-23T14:48:29;96899.34;;;17.31;51.18
62025;BME280;47978;49.118;12.146;2023-03-23T14:52:34;96900.47;;;17.46;51.51
62025;BME280;47978;49.118;12.146;2023-03-23T14:56:35;96904.09;;;17.66;50.98
62025;BME280;47978;49.118;12.146;2023-03-23T15:00:38;96899.41;;;17.70;51.36
62025;BME280;47978;49.118;12.146;2023-03-23T15:04:40;96905.34;;;17.69;50.85
62025;BME280;47978;49.118;12.146;2023-03-23T15:08:42;96896.63;;;17.70;51.09
62025;BME280;47978;49.118;12.146;2023-03-23T15:12:44;96894.66;;;17.55;51.54
62025;BME280;47978;49.118;12.146;2023-03-23T15:16:46;96891.25;;;17.62;51.37
62025;BME280;47978;49.118;12.146;2023-03-23T15:20:48;96896.91;;;17.65;52.47
62025;BME280;47978;49.118;12.146;2023-03-23T15:24:49;96906.44;;;17.64;51.96
62025;BME280;47978;49.118;12.146;2023-03-23T15:28:50;96907.91;;;17.58;51.37
62025;BME280;47978;49.118;12.146;2023-03-23T15:33:01;96891.53;;;17.57;52.24
62025;BME280;47978;49.118;12.146;2023-03-23T15:37:03;96894.59;;;17.51;51.92
62025;BME280;47978;49.118;12.146;2023-03-23T15:41:04;96897.75;;;17.50;51.82
62025;BME280;47978;49.118;12.146;2023-03-23T15:45:16;96878.13;;;17.46;52.31
62025;BME280;47978;49.118;12.146;2023-03-23T15:49:21;96877.81;;;17.51;51.84
62025;BME280;47978;49.118;12.146;2023-03-23T15:53:27;96886.50;;;17.46;52.16
62025;BME280;47978;49.118;12.146;2023-03-23T15:57:27;96884.81;;;17.42;51.64
62025;BME280;47978;49.118;12.146;2023-03-23T16:01:28;96875.66;;;17.25;52.38
62025;BME280;47978;49.118;12.146;2023-03-23T16:05:32;96877.22;;;17.23;53.20
62025;BME280;47978;49.118;12.146;2023-03-23T16:09:34;96874.97;;;17.13;53.74
62025;BME280;47978;49.118;12.146;2023-03-23T16:13:36;96892.00;;;17.07;53.28
62025;BME280;47978;49.118;12.146;2023-03-23T16:17:37;96885.72;;;16.95;53.23
62025;BME280;47978;49.118;12.146;2023-03-23T16:21:40;96880.25;;;16.82;53.75
62025;BME280;47978;49.118;12.146;2023-03-23T16:25:42;96878.78;;;16.73;55.08
62025;BME280;47978;49.118;12.146;2023-03-23T16:29:44;96895.19;;;16.58;57.44
62025;BME280;47978;49.118;12.146;2023-03-23T16:34:03;96899.94;;;16.42;58.29
62025;BME280;47978;49.118;12.146;2023-03-23T16:38:06;96894.16;;;16.19;60.89
62025;BME280;47978;49.118;12.146;2023-03-23T16:42:09;96892.97;;;16.04;62.94
62025;BME280;47978;49.118;12.146;2023-03-23T16:46:11;96896.88;;;15.87;63.91
62025;BME280;47978;49.118;12.146;2023-03-23T16:50:13;96902.69;;;15.82;64.05
62025;BME280;47978;49.118;12.146;2023-03-23T16:54:16;96911.25;;;15.61;64.77
62025;BME280;47978;49.118;12.146;2023-03-23T16:58:18;96919.28;;;15.50;65.98
62025;BME280;47978;49.118;12.146;2023-03-23T17:02:20;96906.22;;;15.26;66.77
62025;BME280;47978;49.118;12.146;2023-03-23T17:06:21;96898.84;;;15.06;67.79
62025;BME280;47978;49.118;12.146;2023-03-23T17:10:24;96893.84;;;14.99;67.29
62025;BME280;47978;49.118;12.146;2023-03-23T17:14:26;96899.66;;;14.94;67.93
62025;BME280;47978;49.118;12.146;2023-03-23T17:18:28;96900.34;;;14.91;68.54
62025;BME280;47978;49.118;12.146;2023-03-23T17:22:29;96905.22;;;14.70;69.28
62025;BME280;47978;49.118;12.146;2023-03-23T17:26:32;96907.44;;;14.52;70.36
62025;BME280;47978;49.118;12.146;2023-03-23T17:30:33;96910.03;;;14.36;70.91
62025;BME280;47978;49.118;12.146;2023-03-23T17:34:35;96911.91;;;14.32;71.61
62025;BME280;47978;49.118;12.146;2023-03-23T17:38:37;96918.38;;;14.24;71.93
62025;BME280;47978;49.118;12.146;2023-03-23T17:42:39;96917.34;;;13.95;72.78
62025;BME280;47978;49.118;12.146;2023-03-23T17:46:41;96924.66;;;14.00;72.99
62025;BME280;47978;49.118;12.146;2023-03-23T17:50:45;96917.28;;;13.83;73.57
62025;BME280;47978;49.118;12.146;2023-03-23T17:54:46;96915.75;;;13.73;73.63
62025;BME280;47978;49.118;12.146;2023-03-23T17:58:49;96918.25;;;13.66;73.78
62025;BME280;47978;49.118;12.146;2023-03-23T18:02:50;96925.63;;;13.49;74.29
62025;BME280;47978;49.118;12.146;2023-03-23T18:06:53;96918.56;;;13.52;74.96
62025;BME280;47978;49.118;12.146;2023-03-23T18:10:55;96926.28;;;13.46;76.33
62025;BME280;47978;49.118;12.146;2023-03-23T18:14:58;96935.56;;;13.30;77.72
62025;BME280;47978;49.118;12.146;2023-03-23T18:19:00;96933.69;;;13.13;78.66
62025;BME280;47978;49.118;12.146;2023-03-23T18:23:01;96918.84;;;13.09;79.50
62025;BME280;47978;49.118;12.146;2023-03-23T18:27:03;96915.13;;;13.04;79.37
62025;BME280;47978;49.118;12.146;2023-03-23T18:31:06;96910.81;;;13.16;76.73
62025;BME280;47978;49.118;12.146;2023-03-23T18:35:09;96906.66;;;13.22;77.30
62025;BME280;47978;49.118;12.146;2023-03-23T18:39:10;96913.91;;;13.14;78.15
62025;BME280;47978;49.118;12.146;2023-03-23T18:43:12;96915.53;;;13.15;78.41
62025;BME280;47978;49.118;12.146;2023-03-23T18:47:15;96916.34;;;13.16;77.57
62025;BME280;47978;49.118;12.146;2023-03-23T18:51:16;96912.47;;;13.08;77.72
62025;BME280;47978;49.118;12.146;2023-03-23T18:55:18;96906.59;;;13.10;77.92
62025;BME280;47978;49.118;12.146;2023-03-23T18:59:22;96913.78;;;13.11;77.47
62025;BME280;47978;49.118;12.146;2023-03-23T19:03:25;96904.97;;;13.09;77.76
62025;BME280;47978;49.118;12.146;2023-03-23T19:07:26;96897.66;;;13.04;78.46
62025;BME280;47978;49.118;12.146;2023-03-23T19:11:30;96892.63;;;12.97;78.19
62025;BME280;47978;49.118;12.146;2023-03-23T19:15:31;96886.56;;;13.04;77.47
62025;BME280;47978;49.118;12.146;2023-03-23T19:19:35;96881.38;;;12.94;78.18
62025;BME280;47978;49.118;12.146;2023-03-23T19:23:36;96880.16;;;12.82;79.10
62025;BME280;47978;49.118;12.146;2023-03-23T19:27:37;96892.59;;;12.76;79.71
62025;BME280;47978;49.118;12.146;2023-03-23T19:31:59;96888.56;;;12.65;80.31
62025;BME280;47978;49.118;12.146;2023-03-23T19:36:02;96889.06;;;12.67;79.75
62025;BME280;47978;49.118;12.146;2023-03-23T19:40:13;96891.25;;;12.53;80.24
62025;BME280;47978;49.118;12.146;2023-03-23T19:44:34;96885.38;;;12.54;80.92
62025;BME280;47978;49.118;12.146;2023-03-23T19:48:36;96892.59;;;12.47;80.71
62025;BME280;47978;49.118;12.146;2023-03-23T19:52:41;96897.84;;;12.40;80.66
62025;BME280;47978;49.118;12.146;2023-03-23T19:56:42;96888.03;;;12.42;80.80
62025;BME280;47978;49.118;12.146;2023-03-23T20:00:44;96894.88;;;12.45;79.91
62025;BME280;47978;49.118;12.146;2023-03-23T20:04:46;96891.06;;;12.58;79.32
62025;BME280;47978;49.118;12.146;2023-03-23T20:08:48;96897.84;;;12.69;75.83
62025;BME280;47978;49.118;12.146;2023-03-23T20:12:50;96895.63;;;12.92;72.89
62025;BME280;47978;49.118;12.146;2023-03-23T20:16:51;96906.66;;;13.01;73.73
62025;BME280;47978;49.118;12.146;2023-03-23T20:20:58;96901.56;;;13.03;73.44
62025;BME280;47978;49.118;12.146;2023-03-23T20:25:02;96902.72;;;13.02;72.01
62025;BME280;47978;49.118;12.146;2023-03-23T20:29:03;96908.69;;;13.13;71.68
62025;BME280;47978;49.118;12.146;2023-03-23T20:33:05;96912.09;;;13.18;72.25
62025;BME280;47978;49.118;12.146;2023-03-23T20:37:06;96912.78;;;13.15;71.97
62025;BME280;47978;49.118;12.146;2023-03-23T20:41:09;96920.63;;;13.13;71.70
62025;BME280;47978;49.118;12.146;2023-03-23T20:45:11;96911.75;;;13.20;71.59
62025;BME280;47978;49.118;12.146;2023-03-23T20:49:13;96920.00;;;13.08;72.22
62025;BME280;47978;49.118;12.146;2023-03-23T20:53:14;96919.31;;;13.11;72.08
62025;BME280;47978;49.118;12.146;2023-03-23T20:57:17;96917.47;;;13.15;71.57
62025;BME280;47978;49.118;12.146;2023-03-23T21:01:19;96918.16;;;13.12;72.09
62025;BME280;47978;49.118;12.146;2023-03-23T21:05:20;96923.63;;;12.99;73.24
62025;BME280;47978;49.118;12.146;2023-03-23T21:09:22;96920.91;;;12.91;74.92
62025;BME280;47978;49.118;12.146;2023-03-23T21:13:24;96918.19;;;12.82;75.54
62025;BME280;47978;49.118;12.146;2023-03-23T21:17:26;96912.69;;;12.73;76.34